Time;durP1;ratioP1;P1;durP2;ratioP2;P2;SDS_P1;SDS_P2;PMS_P1;PMS_P2;Temp;Humidity;BMP_temperature;BMP_pressure;BME280_temperature;BME280_humidity;BME280_pressure;Samples;Min_cycle;Max_cycle;Signal;HPM_P1;HPM_P2
2022/06/13 00:01:43;;;;;;;3.20;1.37;;;;;;;;;;5062782;27;92574;-75
2022/06/13 00:04:13;;;;;;;2.77;1.37;;;;;;;;;;5063270;27;88480;-73
2022/06/13 00:06:41;;;;;;;1.37;1.27;;;;;;;;;;5044239;27;88589;-74
2022/06/13 00:09:09;;;;;;;2.97;0.90;;;;;;;;;;5042231;28;90202;-75
2022/06/13 00:11:38;;;;;;;4.57;1.40;;;;;;;;;;5043351;27;90483;-74
2022/06/13 00:14:06;;;;;;;3.47;1.60;;;;;;;;;;5058160;27;88581;-73
2022/06/13 00:16:35;;;;;;;2.27;1.20;;;;;;;;;;5062671;27;88441;-73
2022/06/13 00:19:03;;;;;;;4.00;1.37;;;;;;;;;;5062697;27;93680;-74
2022/06/13 00:21:34;;;;;;;2.93;1.53;;;;;;;;;;5051448;27;89236;-74
2022/06/13 00:24:03;;;;;;;2.97;1.40;;;;;;;;;;5057662;27;88463;-74
2022/06/13 00:26:32;;;;;;;1.97;1.20;;;;;;;;;;5043108;27;88564;-74
2022/06/13 00:29:01;;;;;;;3.47;1.60;;;;;;;;;;5041903;28;90588;-75
2022/06/13 00:31:29;;;;;;;3.13;1.37;;;;;;;;;;5051309;27;90209;-76
2022/06/13 00:33:59;;;;;;;3.47;1.63;;;;;;;;;;5062195;27;88270;-76
2022/06/13 00:36:27;;;;;;;1.80;1.43;;;;;;;;;;5062520;27;90005;-75
2022/06/13 00:38:57;;;;;;;2.37;1.30;;;;;;;;;;5047154;27;90903;-75
2022/06/13 00:41:27;;;;;;;1.37;1.10;;;;;;;;;;5051043;27;89835;-75
2022/06/13 00:43:56;;;;;;;2.40;1.30;;;;;;;;;;5062515;27;88583;-75
2022/06/13 00:46:25;;;;;;;1.97;1.30;;;;;;;;;;5063092;27;88344;-75
2022/06/13 00:48:54;;;;;;;3.87;1.37;;;;;;;;;;5062314;27;93315;-75
2022/06/13 00:51:22;;;;;;;1.27;0.90;;;;;;;;;;5050014;27;90101;-75
2022/06/13 00:53:53;;;;;;;1.10;1.00;;;;;;;;;;5041804;28;88341;-76
2022/06/13 00:56:25;;;;;;;3.10;1.23;;;;;;;;;;5042355;27;88500;-75
2022/06/13 00:58:55;;;;;;;1.53;1.17;;;;;;;;;;5041138;28;90645;-75
2022/06/13 01:01:24;;;;;;;1.07;1.00;;;;;;;;;;5042790;27;90373;-75
2022/06/13 01:03:52;;;;;;;1.40;0.90;;;;;;;;;;5040807;28;88424;-75
2022/06/13 01:06:21;;;;;;;1.77;1.00;;;;;;;;;;5053640;27;88536;-75
2022/06/13 01:08:49;;;;;;;2.37;1.10;;;;;;;;;;5061266;27;89496;-76
2022/06/13 01:11:17;;;;;;;2.33;0.90;;;;;;;;;;5054889;27;89941;-75
2022/06/13 01:13:58;;;;;;;2.10;1.23;;;;;;;;;;5041367;28;88435;-75
2022/06/13 01:16:28;;;;;;;1.67;1.10;;;;;;;;;;5041685;28;88317;-74
2022/06/13 01:19:02;;;;;;;1.40;1.30;;;;;;;;;;5041268;28;93476;-75
2022/06/13 01:21:33;;;;;;;1.37;0.93;;;;;;;;;;5040959;28;91721;-75
2022/06/13 01:24:22;;;;;;;1.80;1.23;;;;;;;;;;5040466;28;88610;-75
2022/06/13 01:27:04;;;;;;;2.23;1.30;;;;;;;;;;5033706;27;88350;-75
2022/06/13 01:29:41;;;;;;;2.53;1.10;;;;;;;;;;5044807;28;92921;-75
2022/06/13 01:32:13;;;;;;;2.00;1.03;;;;;;;;;;5061401;27;90393;-75
2022/06/13 01:34:42;;;;;;;3.67;1.17;;;;;;;;;;5065142;27;88298;-75
2022/06/13 01:37:12;;;;;;;1.90;1.00;;;;;;;;;;5046549;27;88573;-76
2022/06/13 01:39:43;;;;;;;2.63;1.50;;;;;;;;;;5056662;27;93530;-75
2022/06/13 01:42:12;;;;;;;3.70;1.20;;;;;;;;;;5064137;27;90402;-74
2022/06/13 01:44:44;;;;;;;6.40;1.20;;;;;;;;;;5064624;27;88473;-74
2022/06/13 01:47:14;;;;;;;2.43;1.20;;;;;;;;;;5064803;27;88545;-75
2022/06/13 01:49:44;;;;;;;3.50;1.00;;;;;;;;;;5064044;27;90673;-75
2022/06/13 01:52:14;;;;;;;2.17;1.00;;;;;;;;;;5063995;27;90081;-74
2022/06/13 01:54:44;;;;;;;3.43;1.10;;;;;;;;;;5064251;27;88385;-75
2022/06/13 01:57:15;;;;;;;2.87;1.10;;;;;;;;;;5047272;27;88543;-75
2022/06/13 01:59:48;;;;;;;2.03;0.90;;;;;;;;;;5043916;28;90135;-75
2022/06/13 02:02:19;;;;;;;3.87;1.67;;;;;;;;;;5043923;28;89641;-75
2022/06/13 02:04:48;;;;;;;1.23;1.07;;;;;;;;;;5054247;27;90450;-75
2022/06/13 02:07:18;;;;;;;0.80;0.80;;;;;;;;;;5064419;27;88199;-74
2022/06/13 02:09:47;;;;;;;1.73;0.80;;;;;;;;;;5064441;27;90358;-75
2022/06/13 02:12:15;;;;;;;1.57;0.90;;;;;;;;;;5063750;27;90021;-74
2022/06/13 02:14:47;;;;;;;1.73;1.00;;;;;;;;;;5063755;27;88326;-74
2022/06/13 02:17:15;;;;;;;1.93;1.00;;;;;;;;;;5064422;27;88575;-73
2022/06/13 02:19:46;;;;;;;1.07;0.90;;;;;;;;;;5063835;27;90729;-74
2022/06/13 02:22:15;;;;;;;3.63;0.83;;;;;;;;;;5063303;27;89006;-73
2022/06/13 02:24:44;;;;;;;3.30;1.10;;;;;;;;;;5063433;27;88534;-73
2022/06/13 02:27:12;;;;;;;5.47;1.30;;;;;;;;;;5047270;27;88547;-74
2022/06/13 02:29:42;;;;;;;3.03;1.40;;;;;;;;;;5043078;27;90612;-73
2022/06/13 02:32:12;;;;;;;2.40;0.90;;;;;;;;;;5042869;28;88445;-74
2022/06/13 02:34:48;;;;;;;1.10;0.93;;;;;;;;;;5043589;28;88563;-73
2022/06/13 02:37:17;;;;;;;1.53;0.93;;;;;;;;;;5043329;28;88316;-74
2022/06/13 02:39:46;;;;;;;2.00;1.30;;;;;;;;;;5042725;27;90908;-73
2022/06/13 02:42:17;;;;;;;1.77;0.80;;;;;;;;;;5042570;28;89445;-73
2022/06/13 02:44:46;;;;;;;1.73;0.83;;;;;;;;;;5043207;28;88545;-73
2022/06/13 02:47:15;;;;;;;2.00;0.97;;;;;;;;;;5043188;28;88435;-73
2022/06/13 02:49:44;;;;;;;1.60;0.97;;;;;;;;;;5043347;28;89562;-73
2022/06/13 02:52:19;;;;;;;2.10;1.10;;;;;;;;;;5057857;27;89406;-75
2022/06/13 02:54:48;;;;;;;2.87;1.13;;;;;;;;;;5023178;28;88424;-74
2022/06/13 02:57:27;;;;;;;2.20;0.97;;;;;;;;;;5032557;28;88224;-75
2022/06/13 03:00:00;;;;;;;2.20;0.77;;;;;;;;;;5029684;28;92608;-74
2022/06/13 03:02:29;;;;;;;2.10;1.00;;;;;;;;;;5042361;27;90579;-75
2022/06/13 03:04:59;;;;;;;2.27;1.20;;;;;;;;;;5033629;27;88482;-75
2022/06/13 03:07:32;;;;;;;1.57;1.20;;;;;;;;;;5035940;28;89177;-75
2022/06/13 03:10:01;;;;;;;1.37;1.27;;;;;;;;;;5039915;27;89640;-75
2022/06/13 03:12:30;;;;;;;2.60;1.20;;;;;;;;;;5041066;28;90084;-75
2022/06/13 03:14:59;;;;;;;3.10;1.90;;;;;;;;;;5042224;28;88784;-75
2022/06/13 03:17:29;;;;;;;3.87;1.40;;;;;;;;;;5059316;27;88464;-75
2022/06/13 03:19:58;;;;;;;2.03;1.43;;;;;;;;;;5063128;27;91250;-75
2022/06/13 03:22:26;;;;;;;7.00;3.30;;;;;;;;;;5062826;27;89416;-75
2022/06/13 03:24:59;;;;;;;6.23;3.17;;;;;;;;;;5037393;28;88382;-74
2022/06/13 03:27:33;;;;;;;6.70;3.23;;;;;;;;;;5041618;27;88844;-74
2022/06/13 03:30:02;;;;;;;5.13;2.90;;;;;;;;;;5041954;28;90224;-74
2022/06/13 03:32:31;;;;;;;6.87;3.20;;;;;;;;;;5057394;27;90331;-74
2022/06/13 03:35:00;;;;;;;6.27;3.23;;;;;;;;;;5062820;27;88485;-74
2022/06/13 03:37:31;;;;;;;7.23;3.40;;;;;;;;;;5062803;27;88548;-74
2022/06/13 03:40:02;;;;;;;3.97;3.27;;;;;;;;;;5062405;27;90662;-74
2022/06/13 03:42:31;;;;;;;6.93;3.50;;;;;;;;;;5061819;27;92441;-74
2022/06/13 03:45:00;;;;;;;5.50;3.17;;;;;;;;;;5062643;27;88318;-74
2022/06/13 03:47:30;;;;;;;8.77;3.33;;;;;;;;;;5044062;27;88576;-73
2022/06/13 03:50:00;;;;;;;6.10;3.70;;;;;;;;;;5041413;27;91206;-74
2022/06/13 03:52:28;;;;;;;10.07;3.13;;;;;;;;;;5058661;27;90124;-74
2022/06/13 03:54:59;;;;;;;5.60;3.17;;;;;;;;;;5044932;27;88980;-74
2022/06/13 03:57:29;;;;;;;5.17;3.00;;;;;;;;;;5042472;28;88363;-73
2022/06/13 03:59:59;;;;;;;5.80;3.20;;;;;;;;;;5041898;28;90625;-74
2022/06/13 04:02:29;;;;;;;5.70;2.80;;;;;;;;;;5041728;27;89564;-74
2022/06/13 04:04:57;;;;;;;5.17;3.23;;;;;;;;;;5042134;28;88519;-74
2022/06/13 04:07:26;;;;;;;4.57;3.23;;;;;;;;;;5042298;27;88585;-73
2022/06/13 04:09:55;;;;;;;4.17;2.77;;;;;;;;;;5041386;28;91107;-73
2022/06/13 04:12:32;;;;;;;6.50;2.73;;;;;;;;;;5041257;27;89981;-73
2022/06/13 04:15:07;;;;;;;4.93;2.73;;;;;;;;;;5041831;28;88464;-72
2022/06/13 04:17:36;;;;;;;4.60;2.80;;;;;;;;;;5042349;27;88441;-72
2022/06/13 04:20:08;;;;;;;6.50;3.23;;;;;;;;;;5041427;28;90584;-74
2022/06/13 04:22:39;;;;;;;4.93;2.53;;;;;;;;;;5053578;27;90072;-72
2022/06/13 04:25:09;;;;;;;5.50;2.20;;;;;;;;;;5021543;28;88481;-73
2022/06/13 04:27:40;;;;;;;5.77;3.20;;;;;;;;;;5040532;27;88400;-73
2022/06/13 04:30:10;;;;;;;3.10;2.10;;;;;;;;;;5041981;28;90820;-73
2022/06/13 04:32:40;;;;;;;4.70;3.03;;;;;;;;;;5041500;27;89979;-73
2022/06/13 04:35:09;;;;;;;2.73;2.20;;;;;;;;;;5041960;27;88241;-73
2022/06/13 04:37:38;;;;;;;4.43;2.47;;;;;;;;;;5041743;27;88401;-72
2022/06/13 04:40:07;;;;;;;4.47;2.43;;;;;;;;;;5040985;28;91006;-73
2022/06/13 04:42:35;;;;;;;4.77;2.13;;;;;;;;;;5056317;27;89614;-73
2022/06/13 04:45:05;;;;;;;5.03;1.50;;;;;;;;;;5041573;28;88453;-74
2022/06/13 04:47:34;;;;;;;4.13;2.27;;;;;;;;;;5040967;28;88503;-73
2022/06/13 04:50:02;;;;;;;4.67;2.20;;;;;;;;;;5040819;28;90879;-73
2022/06/13 04:52:31;;;;;;;4.83;2.00;;;;;;;;;;5041035;28;90042;-73
2022/06/13 04:55:01;;;;;;;4.40;2.07;;;;;;;;;;5040996;28;88260;-73
2022/06/13 04:57:29;;;;;;;3.13;1.97;;;;;;;;;;5041719;27;88472;-74
2022/06/13 04:59:58;;;;;;;3.60;2.30;;;;;;;;;;5041089;28;89460;-73
2022/06/13 05:02:35;;;;;;;2.70;1.50;;;;;;;;;;5060026;27;93910;-74
2022/06/13 05:05:04;;;;;;;2.07;1.77;;;;;;;;;;5065000;27;88374;-74
2022/06/13 05:07:32;;;;;;;3.17;2.10;;;;;;;;;;5064713;27;88525;-74
2022/06/13 05:10:01;;;;;;;2.27;1.80;;;;;;;;;;5064773;27;90957;-74
2022/06/13 05:12:30;;;;;;;3.43;2.20;;;;;;;;;;5049222;27;90501;-74
2022/06/13 05:15:06;;;;;;;3.77;2.33;;;;;;;;;;5044979;28;88306;-74
2022/06/13 05:17:58;;;;;;;4.93;1.60;;;;;;;;;;5044597;28;89468;-74
2022/06/13 05:20:28;;;;;;;2.40;1.60;;;;;;;;;;5044996;28;90836;-74
2022/06/13 05:23:12;;;;;;;1.77;1.30;;;;;;;;;;5064818;27;89372;-74
2022/06/13 05:25:43;;;;;;;1.97;1.40;;;;;;;;;;5048473;27;88640;-74
2022/06/13 05:28:11;;;;;;;1.83;1.40;;;;;;;;;;5044541;28;88460;-73
2022/06/13 05:30:40;;;;;;;4.60;1.63;;;;;;;;;;5045241;27;93354;-74
2022/06/13 05:33:12;;;;;;;1.23;1.13;;;;;;;;;;5039478;28;93034;-74
2022/06/13 05:35:43;;;;;;;1.30;1.07;;;;;;;;;;5043174;28;88564;-73
2022/06/13 05:38:13;;;;;;;3.93;1.30;;;;;;;;;;5023713;28;89218;-74
2022/06/13 05:40:41;;;;;;;1.47;1.13;;;;;;;;;;5024568;27;90936;-74
2022/06/13 05:43:10;;;;;;;2.27;1.60;;;;;;;;;;5043951;28;89929;-74
2022/06/13 05:45:39;;;;;;;1.30;1.10;;;;;;;;;;5044318;28;88403;-75
2022/06/13 05:48:07;;;;;;;3.77;1.50;;;;;;;;;;5044426;28;88418;-74
2022/06/13 05:50:37;;;;;;;2.47;1.50;;;;;;;;;;5044043;28;93318;-74
2022/06/13 05:53:06;;;;;;;1.03;0.70;;;;;;;;;;5063921;27;89552;-74
2022/06/13 05:55:34;;;;;;;1.67;1.10;;;;;;;;;;5064282;27;88342;-74
2022/06/13 05:58:03;;;;;;;1.67;0.80;;;;;;;;;;5064044;27;88579;-74
2022/06/13 06:00:32;;;;;;;3.93;1.53;;;;;;;;;;5049848;27;91053;-74
2022/06/13 06:03:00;;;;;;;2.10;0.90;;;;;;;;;;5023476;28;89455;-74
2022/06/13 06:05:29;;;;;;;3.60;1.10;;;;;;;;;;5034501;27;88440;-74
2022/06/13 06:07:59;;;;;;;4.30;1.33;;;;;;;;;;5054485;27;88465;-74
2022/06/13 06:10:27;;;;;;;1.50;1.03;;;;;;;;;;5043662;28;90650;-74
2022/06/13 06:12:56;;;;;;;2.90;1.30;;;;;;;;;;5036136;27;89315;-74
2022/06/13 06:15:24;;;;;;;1.60;1.00;;;;;;;;;;5022683;28;88451;-75
2022/06/13 06:17:52;;;;;;;0.70;0.60;;;;;;;;;;5040720;27;88593;-74
2022/06/13 06:20:25;;;;;;;0.53;0.47;;;;;;;;;;5043687;28;89524;-75
2022/06/13 06:22:53;;;;;;;1.60;0.83;;;;;;;;;;5029461;27;93308;-74
2022/06/13 06:25:23;;;;;;;3.03;1.40;;;;;;;;;;5041797;28;88258;-74
2022/06/13 06:27:52;;;;;;;2.83;0.97;;;;;;;;;;5050496;27;88891;-75
2022/06/13 06:30:20;;;;;;;0.93;0.63;;;;;;;;;;5060531;27;90336;-74
2022/06/13 06:32:54;;;;;;;0.73;0.67;;;;;;;;;;5064053;27;89249;-75
2022/06/13 06:35:23;;;;;;;1.07;0.93;;;;;;;;;;5063559;27;88417;-74
2022/06/13 06:37:51;;;;;;;0.90;0.60;;;;;;;;;;5052501;27;88585;-74
2022/06/13 06:40:20;;;;;;;1.47;0.60;;;;;;;;;;5042786;27;90595;-74
2022/06/13 06:42:50;;;;;;;1.67;0.70;;;;;;;;;;5043295;28;88502;-74
2022/06/13 06:45:23;;;;;;;1.10;0.70;;;;;;;;;;5042555;28;88530;-75
2022/06/13 06:47:51;;;;;;;0.73;0.73;;;;;;;;;;5039632;27;88637;-74
2022/06/13 06:50:20;;;;;;;0.60;0.50;;;;;;;;;;5040847;28;90769;-74
2022/06/13 06:52:49;;;;;;;2.53;0.77;;;;;;;;;;5035934;27;90112;-74
2022/06/13 07:00:56;;;;;;;1.13;0.93;;;;;;;;;;5036295;28;90668;-75
2022/06/13 07:03:25;;;;;;;2.43;0.87;;;;;;;;;;5034632;27;89682;-76
2022/06/13 07:05:53;;;;;;;1.43;0.60;;;;;;;;;;5041225;27;90231;-77
2022/06/13 07:08:22;;;;;;;0.40;0.40;;;;;;;;;;5043233;27;88499;-76
2022/06/13 07:10:50;;;;;;;1.40;0.60;;;;;;;;;;5036738;28;90915;-77
2022/06/13 07:13:20;;;;;;;1.23;0.80;;;;;;;;;;5042513;27;90232;-78
2022/06/13 07:15:50;;;;;;;1.07;0.63;;;;;;;;;;5058056;27;88473;-77
2022/06/13 07:18:19;;;;;;;1.23;0.63;;;;;;;;;;5057526;27;88211;-77
2022/06/13 07:20:47;;;;;;;1.47;0.50;;;;;;;;;;5023790;28;90281;-77
2022/06/13 07:23:15;;;;;;;0.97;0.70;;;;;;;;;;5041987;28;89975;-77
2022/06/13 07:25:43;;;;;;;0.37;0.37;;;;;;;;;;5045199;27;89942;-78
2022/06/13 07:28:12;;;;;;;1.03;0.60;;;;;;;;;;5043583;27;88452;-78
2022/06/13 10:48:28;;;;;;;1.57;0.60;;;;;;;;;;5076521;27;88292;-72
2022/06/13 10:50:58;;;;;;;1.73;0.37;;;;;;;;;;5071638;27;88372;-73
2022/06/13 10:53:28;;;;;;;0.93;0.53;;;;;;;;;;5063054;27;88699;-72
2022/06/13 10:55:57;;;;;;;1.97;0.63;;;;;;;;;;5067272;27;93565;-73
2022/06/13 10:58:26;;;;;;;0.60;0.40;;;;;;;;;;5070312;27;91919;-73
2022/06/13 11:01:08;;;;;;;1.23;0.70;;;;;;;;;;5073020;27;88290;-72
2022/06/13 11:03:41;;;;;;;0.50;0.50;;;;;;;;;;5070299;27;88398;-71
2022/06/13 11:06:15;;;;;;;3.80;0.77;;;;;;;;;;5069948;27;90622;-71
2022/06/13 11:08:44;;;;;;;5.57;0.70;;;;;;;;;;5078444;27;88607;-71
2022/06/13 11:11:16;;;;;;;1.73;0.77;;;;;;;;;;5073620;27;88604;-71
2022/06/13 11:13:45;;;;;;;1.07;0.67;;;;;;;;;;5073635;27;88574;-71
2022/06/13 11:24:48;;;;;;;0.73;0.50;;;;;;;;;;5071764;27;89723;-71
2022/06/13 11:27:42;;;;;;;4.47;0.70;;;;;;;;;;5073217;27;90441;-71
2022/06/13 11:30:21;;;;;;;1.90;0.77;;;;;;;;;;5068549;27;92042;-70
2022/06/13 11:32:59;;;;;;;2.30;0.77;;;;;;;;;;5065392;27;88690;-70
2022/06/13 11:35:33;;;;;;;48.57;19.37;;;;;;;;;;5061308;27;88583;-70
2022/06/13 11:38:19;;;;;;;69.63;23.40;;;;;;;;;;5054057;27;91850;-70
2022/06/13 11:40:57;;;;;;;98.33;34.83;;;;;;;;;;5055832;27;88938;-70
2022/06/13 11:43:32;;;;;;;71.10;24.63;;;;;;;;;;5055734;27;88500;-71
2022/06/13 11:46:01;;;;;;;38.17;15.40;;;;;;;;;;5055557;27;88415;-71
2022/06/13 11:48:30;;;;;;;28.07;9.83;;;;;;;;;;5054712;27;92977;-71
2022/06/13 11:51:00;;;;;;;20.37;8.07;;;;;;;;;;5056404;27;92480;-70
2022/06/13 11:53:38;;;;;;;19.37;7.80;;;;;;;;;;5065533;27;88583;-72
2022/06/13 11:56:12;;;;;;;10.53;4.50;;;;;;;;;;5065015;27;88640;-71
2022/06/13 11:58:43;;;;;;;9.73;3.90;;;;;;;;;;5062615;27;89422;-71
2022/06/13 12:01:13;;;;;;;8.00;3.83;;;;;;;;;;5048538;27;90204;-70
2022/06/13 12:03:43;;;;;;;8.50;3.40;;;;;;;;;;5050845;27;88288;-70
2022/06/13 12:06:14;;;;;;;5.83;2.70;;;;;;;;;;5049428;27;88594;-70
2022/06/13 12:08:42;;;;;;;4.10;2.30;;;;;;;;;;5042656;27;92554;-71
2022/06/13 12:11:21;;;;;;;4.67;1.70;;;;;;;;;;5043480;27;89186;-71
2022/06/13 12:13:50;;;;;;;4.80;1.67;;;;;;;;;;5060378;27;88346;-74
2022/06/13 12:16:22;;;;;;;6.80;1.60;;;;;;;;;;5063805;27;88451;-75
2022/06/13 12:18:52;;;;;;;3.73;1.80;;;;;;;;;;5056943;27;89933;-75
2022/06/13 12:21:25;;;;;;;3.20;1.37;;;;;;;;;;5043339;27;90355;-75
2022/06/13 12:23:55;;;;;;;2.53;1.03;;;;;;;;;;5039925;27;88364;-75
2022/06/13 12:26:25;;;;;;;0.90;0.80;;;;;;;;;;5044027;27;88873;-75
2022/06/13 12:28:55;;;;;;;2.03;0.93;;;;;;;;;;5040346;28;92831;-75
2022/06/13 12:31:25;;;;;;;0.90;0.60;;;;;;;;;;5042920;28;91085;-75
2022/06/13 12:33:56;;;;;;;2.03;0.80;;;;;;;;;;5051441;27;88159;-75
2022/06/13 12:36:30;;;;;;;1.30;0.70;;;;;;;;;;5043058;27;88424;-76
2022/06/13 12:39:03;;;;;;;2.47;0.70;;;;;;;;;;5039224;28;89310;-75
2022/06/13 12:41:33;;;;;;;4.83;1.00;;;;;;;;;;5040514;28;90197;-75
2022/06/13 12:44:11;;;;;;;3.00;0.70;;;;;;;;;;5037306;27;88572;-75
2022/06/13 12:46:55;;;;;;;1.83;0.70;;;;;;;;;;5032603;28;88502;-78
2022/06/13 12:49:45;;;;;;;3.20;0.90;;;;;;;;;;5039269;27;90457;-77
2022/06/13 12:52:17;;;;;;;1.53;0.50;;;;;;;;;;5021318;28;88914;-75
2022/06/13 12:54:51;;;;;;;1.47;1.30;;;;;;;;;;5036465;27;88399;-75
2022/06/13 12:57:23;;;;;;;0.60;0.50;;;;;;;;;;5033886;27;88438;-74
2022/06/13 12:59:58;;;;;;;1.73;0.63;;;;;;;;;;5038976;27;90983;-75
2022/06/13 13:02:32;;;;;;;2.63;0.80;;;;;;;;;;5042764;27;91784;-74
2022/06/13 13:05:04;;;;;;;0.77;0.47;;;;;;;;;;5042033;27;88340;-74
2022/06/13 13:07:35;;;;;;;4.00;0.60;;;;;;;;;;5041540;28;88579;-75
2022/06/13 13:10:18;;;;;;;1.80;0.47;;;;;;;;;;5024029;27;91105;-74
2022/06/13 13:12:50;;;;;;;2.03;0.50;;;;;;;;;;5042916;27;88921;-75
2022/06/13 13:15:19;;;;;;;1.03;0.50;;;;;;;;;;5040203;27;88319;-76
2022/06/13 13:17:49;;;;;;;2.07;0.40;;;;;;;;;;5042429;27;88720;-74
2022/06/13 13:20:20;;;;;;;1.80;0.50;;;;;;;;;;5047167;27;93139;-75
2022/06/13 13:22:53;;;;;;;2.70;0.67;;;;;;;;;;5030569;27;88355;-75
2022/06/13 13:25:40;;;;;;;0.20;0.20;;;;;;;;;;5031317;27;88476;-75
2022/06/13 13:28:12;;;;;;;1.73;0.43;;;;;;;;;;5042756;27;88659;-76
2022/06/13 13:30:43;;;;;;;0.77;0.40;;;;;;;;;;5042417;27;90671;-75
2022/06/13 13:33:17;;;;;;;1.77;0.77;;;;;;;;;;5042609;27;89957;-75
2022/06/13 13:35:48;;;;;;;1.80;0.50;;;;;;;;;;5042762;27;88376;-75
2022/06/13 13:38:22;;;;;;;0.57;0.40;;;;;;;;;;5043234;27;88499;-75
2022/06/13 13:40:52;;;;;;;4.17;0.80;;;;;;;;;;5041077;27;92699;-75
2022/06/13 13:43:23;;;;;;;0.63;0.60;;;;;;;;;;5042343;27;88789;-75
2022/06/13 13:45:54;;;;;;;0.90;0.40;;;;;;;;;;5043382;28;88520;-75
2022/06/13 13:48:25;;;;;;;0.33;0.30;;;;;;;;;;5042604;28;88667;-76
2022/06/13 13:50:56;;;;;;;3.57;0.63;;;;;;;;;;5042471;27;89536;-75
2022/06/13 13:53:27;;;;;;;2.27;0.70;;;;;;;;;;5042196;28;89412;-75
2022/06/13 13:55:57;;;;;;;0.83;0.60;;;;;;;;;;5042666;27;88354;-75
2022/06/13 13:58:28;;;;;;;1.10;0.80;;;;;;;;;;5039903;27;88448;-76
2022/06/13 14:01:00;;;;;;;1.10;0.67;;;;;;;;;;5042066;27;89541;-75
2022/06/13 14:03:32;;;;;;;2.37;0.57;;;;;;;;;;5042371;27;89296;-75
2022/06/13 14:06:06;;;;;;;0.73;0.30;;;;;;;;;;5042554;27;88223;-75
2022/06/13 14:08:43;;;;;;;0.43;0.43;;;;;;;;;;5022895;28;88363;-76
2022/06/13 14:11:12;;;;;;;1.10;0.80;;;;;;;;;;5038607;28;89419;-75
2022/06/13 14:13:41;;;;;;;0.50;0.30;;;;;;;;;;5041919;27;88519;-75
2022/06/13 14:16:11;;;;;;;0.53;0.27;;;;;;;;;;5040307;27;88464;-76
2022/06/13 14:18:51;;;;;;;2.27;0.30;;;;;;;;;;5042155;27;88482;-76
2022/06/13 14:21:21;;;;;;;4.00;0.50;;;;;;;;;;5041553;27;89884;-75
2022/06/13 14:23:51;;;;;;;3.57;0.63;;;;;;;;;;5042641;28;88733;-76
2022/06/13 14:26:21;;;;;;;1.60;0.50;;;;;;;;;;5042081;27;88223;-75
2022/06/13 14:28:49;;;;;;;1.67;0.60;;;;;;;;;;5042326;28;88405;-75
2022/06/13 14:31:20;;;;;;;2.07;0.50;;;;;;;;;;5033653;28;89385;-75
2022/06/13 14:37:06;;;;;;;0.57;0.53;;;;;;;;;;5044483;27;88283;-76
2022/06/13 14:39:47;;;;;;;1.33;0.63;;;;;;;;;;5034175;27;88622;-76
2022/06/13 14:42:23;;;;;;;2.77;0.47;;;;;;;;;;5041567;28;91972;-76
2022/06/13 14:44:53;;;;;;;0.40;0.40;;;;;;;;;;5041610;27;89163;-76
2022/06/13 14:47:23;;;;;;;0.50;0.47;;;;;;;;;;5040880;27;88414;-77
2022/06/13 14:49:52;;;;;;;1.50;0.80;;;;;;;;;;5042137;27;88362;-76
2022/06/13 14:52:28;;;;;;;1.53;0.67;;;;;;;;;;5041724;28;90103;-76
2022/06/13 14:55:23;;;;;;;1.13;0.43;;;;;;;;;;5042222;27;90188;-75
2022/06/13 14:57:57;;;;;;;2.03;0.90;;;;;;;;;;5042068;27;88533;-76
2022/06/13 15:00:27;;;;;;;0.60;0.40;;;;;;;;;;5042259;27;88401;-76
2022/06/13 15:03:02;;;;;;;3.40;0.70;;;;;;;;;;5040504;27;90563;-75
2022/06/13 15:05:46;;;;;;;0.23;0.23;;;;;;;;;;5033206;28;88779;-76
2022/06/13 15:08:16;;;;;;;0.70;0.40;;;;;;;;;;5021628;28;88572;-75
2022/06/13 15:10:53;;;;;;;2.83;0.80;;;;;;;;;;5020918;28;88621;-75
2022/06/13 15:13:27;;;;;;;1.50;0.63;;;;;;;;;;5030763;27;89661;-75
2022/06/13 15:15:56;;;;;;;2.00;0.50;;;;;;;;;;5040106;27;88973;-75
2022/06/13 15:18:27;;;;;;;1.23;0.50;;;;;;;;;;5040406;27;88452;-76
2022/06/13 15:20:55;;;;;;;1.43;0.53;;;;;;;;;;5028317;28;88602;-75
2022/06/13 15:23:44;;;;;;;0.73;0.40;;;;;;;;;;5020736;28;89246;-75
2022/06/13 15:26:21;;;;;;;2.23;0.50;;;;;;;;;;5037390;27;89334;-76
2022/06/13 15:29:11;;;;;;;0.53;0.40;;;;;;;;;;5040846;27;89399;-76
2022/06/13 15:31:45;;;;;;;2.40;0.43;;;;;;;;;;5040808;27;88614;-75
2022/06/13 15:34:17;;;;;;;1.30;0.60;;;;;;;;;;5042839;27;93665;-76
2022/06/13 15:36:46;;;;;;;0.80;0.40;;;;;;;;;;5041788;27;88830;-75
2022/06/13 15:39:16;;;;;;;3.50;0.40;;;;;;;;;;5044077;28;88420;-76
2022/06/13 15:41:46;;;;;;;0.83;0.60;;;;;;;;;;5044038;28;88547;-76
2022/06/13 15:44:15;;;;;;;1.23;0.67;;;;;;;;;;5043501;27;89568;-75
2022/06/13 15:54:20;;;;;;;1.70;0.40;;;;;;;;;;5023158;28;88523;-76
2022/06/13 15:56:48;;;;;;;1.40;0.60;;;;;;;;;;5023500;28;93275;-76
2022/06/13 15:59:17;;;;;;;2.80;0.43;;;;;;;;;;5023933;28;90268;-76
2022/06/13 16:01:48;;;;;;;2.60;0.60;;;;;;;;;;5025185;28;88630;-75
2022/06/13 16:04:20;;;;;;;4.27;0.73;;;;;;;;;;5024208;28;88515;-76
2022/06/13 16:06:54;;;;;;;1.10;0.37;;;;;;;;;;5023512;28;90695;-75
2022/06/13 16:09:28;;;;;;;1.23;0.50;;;;;;;;;;5022662;28;90851;-76
2022/06/13 16:12:03;;;;;;;2.87;0.50;;;;;;;;;;5022899;28;88862;-76
2022/06/13 16:14:36;;;;;;;1.60;0.60;;;;;;;;;;5023669;28;88727;-76
2022/06/13 16:17:05;;;;;;;2.00;0.97;;;;;;;;;;5022677;28;89805;-76
2022/06/13 16:19:39;;;;;;;0.90;0.63;;;;;;;;;;5023932;28;88783;-75
2022/06/13 16:22:09;;;;;;;1.43;0.50;;;;;;;;;;5034307;27;88559;-75
2022/06/13 16:24:39;;;;;;;1.90;0.53;;;;;;;;;;5043361;27;88600;-75
2022/06/13 16:27:09;;;;;;;0.60;0.50;;;;;;;;;;5043645;27;90149;-76
2022/06/13 16:29:39;;;;;;;0.33;0.30;;;;;;;;;;5042481;28;90331;-75
2022/06/13 16:32:08;;;;;;;1.33;0.60;;;;;;;;;;5041079;27;88525;-75
2022/06/13 16:34:40;;;;;;;1.03;0.40;;;;;;;;;;5043534;27;88405;-75
2022/06/13 16:37:10;;;;;;;0.57;0.53;;;;;;;;;;5043248;27;89238;-75
2022/06/13 16:39:43;;;;;;;0.70;0.40;;;;;;;;;;5043324;27;89230;-75
2022/06/13 16:42:17;;;;;;;0.73;0.60;;;;;;;;;;5045090;27;89713;-75
2022/06/13 16:44:47;;;;;;;1.37;0.53;;;;;;;;;;5059354;27;88669;-75
2022/06/13 16:47:30;;;;;;;0.50;0.47;;;;;;;;;;5058179;27;92318;-75
2022/06/13 16:50:19;;;;;;;0.47;0.40;;;;;;;;;;5038846;28;89489;-75
2022/06/13 16:52:50;;;;;;;0.63;0.63;;;;;;;;;;5047126;27;88508;-75
2022/06/13 16:55:26;;;;;;;0.40;0.40;;;;;;;;;;5045791;27;88602;-75
2022/06/13 16:57:56;;;;;;;0.60;0.50;;;;;;;;;;5046127;27;89933;-75
2022/06/13 17:00:26;;;;;;;3.90;0.67;;;;;;;;;;5052353;27;88702;-75
2022/06/13 17:02:59;;;;;;;4.47;1.20;;;;;;;;;;5044526;27;88600;-75
2022/06/13 17:05:32;;;;;;;4.03;1.70;;;;;;;;;;5042501;27;89046;-75
2022/06/13 17:08:02;;;;;;;1.90;1.60;;;;;;;;;;5044036;27;89659;-75
2022/06/13 17:10:56;;;;;;;2.13;1.67;;;;;;;;;;5039905;27;89565;-75
2022/06/13 17:13:26;;;;;;;4.40;1.87;;;;;;;;;;5047669;27;88450;-75
2022/06/13 17:15:57;;;;;;;4.07;2.07;;;;;;;;;;5041272;27;88770;-75
2022/06/13 17:18:26;;;;;;;6.73;2.37;;;;;;;;;;5041593;27;89837;-75
2022/06/13 17:20:57;;;;;;;7.23;2.33;;;;;;;;;;5046635;27;89116;-76
2022/06/13 17:23:34;;;;;;;4.67;2.60;;;;;;;;;;5037994;28;88548;-75
2022/06/13 17:34:32;;;;;;;4.60;2.20;;;;;;;;;;5051241;27;88544;-75
2022/06/13 17:37:05;;;;;;;5.60;2.20;;;;;;;;;;5053304;27;88796;-75
2022/06/13 17:39:34;;;;;;;4.30;2.20;;;;;;;;;;5056256;27;90574;-75
2022/06/13 17:42:08;;;;;;;4.00;2.60;;;;;;;;;;5047845;27;88954;-75
2022/06/13 17:44:42;;;;;;;7.70;2.90;;;;;;;;;;5058488;27;88484;-75
2022/06/13 17:47:11;;;;;;;4.13;2.43;;;;;;;;;;5059830;27;88543;-75
2022/06/13 17:49:40;;;;;;;5.27;2.37;;;;;;;;;;5059768;27;89314;-75
2022/06/13 17:52:08;;;;;;;3.47;2.23;;;;;;;;;;5056324;27;90451;-75
2022/06/13 17:54:38;;;;;;;3.57;2.23;;;;;;;;;;5055845;27;88658;-75
2022/06/13 17:57:09;;;;;;;6.77;3.00;;;;;;;;;;5050252;27;88304;-74
2022/06/13 17:59:39;;;;;;;5.33;3.17;;;;;;;;;;5050525;27;89553;-75
2022/06/13 18:02:10;;;;;;;3.37;2.60;;;;;;;;;;5054396;27;89863;-75
2022/06/13 18:04:41;;;;;;;4.63;2.93;;;;;;;;;;5051136;27;88356;-75
2022/06/13 18:07:13;;;;;;;3.07;2.33;;;;;;;;;;5058286;27;88679;-75
2022/06/13 18:09:44;;;;;;;3.07;2.50;;;;;;;;;;5059266;27;88492;-75
2022/06/13 18:12:17;;;;;;;5.33;2.30;;;;;;;;;;5048371;27;89052;-75
2022/06/13 18:14:47;;;;;;;5.87;2.87;;;;;;;;;;5047412;27;88542;-75
2022/06/13 18:17:16;;;;;;;4.80;2.10;;;;;;;;;;5047246;27;89390;-75
2022/06/13 18:19:45;;;;;;;4.90;2.73;;;;;;;;;;5056415;27;92010;-75
2022/06/13 18:22:17;;;;;;;4.53;2.07;;;;;;;;;;5056263;27;89325;-75
2022/06/13 18:24:48;;;;;;;2.93;1.63;;;;;;;;;;5059748;27;88560;-75
2022/06/13 18:27:20;;;;;;;4.10;2.13;;;;;;;;;;5054141;27;88651;-75
2022/06/13 18:29:49;;;;;;;3.63;2.13;;;;;;;;;;5058091;27;92037;-76
2022/06/13 18:32:26;;;;;;;3.20;1.77;;;;;;;;;;5047272;27;88821;-76
2022/06/13 18:34:55;;;;;;;1.70;1.60;;;;;;;;;;5045148;27;88445;-76
2022/06/13 18:37:26;;;;;;;5.00;2.17;;;;;;;;;;5052640;27;88548;-75
2022/06/13 18:39:59;;;;;;;3.07;1.63;;;;;;;;;;5051271;27;90122;-75
2022/06/13 18:42:29;;;;;;;3.57;2.00;;;;;;;;;;5058135;27;93109;-75
2022/06/13 18:45:00;;;;;;;3.63;1.73;;;;;;;;;;5056157;27;88784;-75
2022/06/13 18:47:29;;;;;;;4.13;1.60;;;;;;;;;;5051262;27;88648;-76
2022/06/13 18:50:01;;;;;;;3.60;1.83;;;;;;;;;;5053679;27;90977;-76
2022/06/13 18:52:32;;;;;;;2.57;1.53;;;;;;;;;;5049098;27;90174;-75
2022/06/13 18:55:02;;;;;;;3.90;1.60;;;;;;;;;;5054315;27;88433;-76
2022/06/13 18:57:36;;;;;;;3.77;1.80;;;;;;;;;;5056325;27;88845;-75
2022/06/13 19:00:13;;;;;;;4.90;1.63;;;;;;;;;;5051112;27;88551;-75